createdAt,value
2018-06-03T00:00:38.045Z,100828.48
2018-06-03T00:03:08.624Z,100831.23
2018-06-03T00:05:39.092Z,100823.33
2018-06-03T00:08:09.309Z,100830.85
2018-06-03T00:10:39.944Z,100835.58
2018-06-03T00:13:10.430Z,100834.30
2018-06-03T00:15:40.905Z,100840.18
2018-06-03T00:18:11.423Z,100841.16
2018-06-03T00:20:58.765Z,100842.38
2018-06-03T00:23:29.321Z,100830.20
2018-06-03T00:25:59.790Z,100836.98
2018-06-03T00:28:30.334Z,100835.82
2018-06-03T00:31:01.048Z,100833.20
2018-06-03T00:33:31.817Z,100835.82
2018-06-03T00:36:19.070Z,100831.27
2018-06-03T00:38:50.762Z,100828.80
2018-06-03T00:41:21.426Z,100832.54
2018-06-03T00:43:52.041Z,100828.63
2018-06-03T00:46:23.350Z,100827.98
2018-06-03T00:48:53.899Z,100831.90
2018-06-03T00:51:24.814Z,100827.97
2018-06-03T00:53:55.345Z,100825.50
2018-06-03T00:56:42.706Z,100829.38
2018-06-03T00:59:14.726Z,100826.91
2018-06-03T01:01:45.222Z,100827.07
2018-06-03T01:04:15.808Z,100824.61
2018-06-03T01:06:46.829Z,100826.57
2018-06-03T01:09:17.379Z,100820.69
2018-06-03T01:11:49.037Z,100821.31
2018-06-03T01:14:20.265Z,100819.63
2018-06-03T01:16:51.097Z,100819.95
2018-06-03T01:19:21.756Z,100811.89
2018-06-03T01:21:52.329Z,100802.87
2018-06-03T01:24:22.799Z,100811.03
2018-06-03T01:26:53.543Z,100804.50
2018-06-03T01:29:24.260Z,100804.19
2018-06-03T01:31:54.891Z,100807.11
2018-06-03T01:34:25.491Z,100802.47
2018-06-03T01:36:57.990Z,100801.75
2018-06-03T01:39:28.527Z,100808.25
2018-06-03T01:41:59.085Z,100808.91
2018-06-03T01:44:29.605Z,100809.05
2018-06-03T01:47:00.113Z,100811.67
2018-06-03T01:49:31.278Z,100801.99
2018-06-03T01:52:02.925Z,100804.86
2018-06-03T01:54:33.488Z,100791.40
2018-06-03T01:57:04.176Z,100793.39
2018-06-03T01:59:34.643Z,100797.94
2018-06-03T02:02:06.221Z,100793.33
2018-06-03T02:04:36.674Z,100786.98
2018-06-03T02:07:07.302Z,100785.02
2018-06-03T02:09:37.822Z,100781.59
2018-06-03T02:12:08.521Z,100787.35
2018-06-03T02:14:39.387Z,100780.94
2018-06-03T02:17:10.280Z,100780.63
2018-06-03T02:19:40.765Z,100781.62
2018-06-03T02:22:11.719Z,100774.09
2018-06-03T02:24:42.252Z,100774.75
2018-06-03T02:27:15.253Z,100771.38
2018-06-03T02:29:46.398Z,100777.48
2018-06-03T02:32:18.530Z,100779.10
2018-06-03T02:34:49.160Z,100785.94
2018-06-03T02:37:19.837Z,100781.65
2018-06-03T02:39:50.383Z,100785.42
2018-06-03T02:42:22.000Z,100780.47
2018-06-03T02:44:52.521Z,100781.75
2018-06-03T02:47:23.505Z,100780.86
2018-06-03T02:49:54.070Z,100780.06
2018-06-03T02:52:25.737Z,100775.48
2018-06-03T02:54:56.783Z,100773.22
2018-06-03T02:57:28.369Z,100767.95
2018-06-03T02:59:59.198Z,100773.18
2018-06-03T03:02:29.380Z,100772.45
2018-06-03T03:04:59.766Z,100773.40
2018-06-03T03:07:30.151Z,100775.77
2018-06-03T03:10:00.756Z,100776.87
2018-06-03T03:12:31.712Z,100775.06
2018-06-03T03:15:02.530Z,100774.91
2018-06-03T03:17:32.984Z,100770.66
2018-06-03T03:20:04.125Z,100769.35
2018-06-03T03:22:34.621Z,100773.50
2018-06-03T03:25:05.259Z,100767.44
2018-06-03T03:27:35.860Z,100773.66
2018-06-03T03:30:06.486Z,100776.27
2018-06-03T03:32:37.390Z,100780.33
2018-06-03T03:35:08.378Z,100779.80
2018-06-03T03:37:39.135Z,100782.30
2018-06-03T03:40:10.101Z,100783.75
2018-06-03T03:42:41.036Z,100782.69
2018-06-03T03:45:11.828Z,100784.55
2018-06-03T03:47:42.827Z,100789.67
2018-06-03T03:50:14.120Z,100788.52
2018-06-03T03:52:44.760Z,100791.98
2018-06-03T03:55:16.058Z,100797.79
2018-06-03T03:57:46.526Z,100792.95
2018-06-03T04:00:17.296Z,100800.92
2018-06-03T04:02:48.358Z,100804.57
2018-06-03T04:05:18.928Z,100809.34
2018-06-03T04:07:49.043Z,100816.53
2018-06-03T04:10:19.520Z,100813.33
2018-06-03T04:12:50.001Z,100815.42
2018-06-03T04:15:20.656Z,100817.31
2018-06-03T04:17:51.268Z,100820.01
2018-06-03T04:20:21.626Z,100823.50
2018-06-03T04:22:52.774Z,100821.16
2018-06-03T04:25:23.394Z,100820.73
2018-06-03T04:27:53.939Z,100815.00
2018-06-03T04:30:24.717Z,100811.39
2018-06-03T04:32:55.484Z,100817.93
2018-06-03T04:35:26.018Z,100811.83
2018-06-03T04:37:56.713Z,100820.27
2018-06-03T04:40:27.266Z,100818.58
2018-06-03T04:42:58.249Z,100815.31
2018-06-03T04:45:29.012Z,100815.02
2018-06-03T04:48:00.852Z,100813.75
2018-06-03T04:50:31.470Z,100820.31
2018-06-03T04:53:02.936Z,100818.84
2018-06-03T04:55:33.790Z,100821.57
2018-06-03T04:58:04.585Z,100828.12
2018-06-03T05:00:35.222Z,100830.11
2018-06-03T05:03:07.401Z,100828.22
2018-06-03T05:05:37.863Z,100834.75
2018-06-03T05:08:08.398Z,100830.86
2018-06-03T05:10:39.218Z,100835.16
2018-06-03T05:13:09.746Z,100831.59
2018-06-03T05:15:40.250Z,100827.47
2018-06-03T05:18:11.921Z,100832.06
2018-06-03T05:20:42.421Z,100832.08
2018-06-03T05:23:14.065Z,100829.95
2018-06-03T05:25:44.617Z,100829.62
2018-06-03T05:28:15.371Z,100829.58
2018-06-03T05:30:45.969Z,100830.37
2018-06-03T05:33:16.216Z,100831.99
2018-06-03T05:35:46.727Z,100821.60
2018-06-03T05:38:17.173Z,100819.53
2018-06-03T05:40:47.913Z,100817.17
2018-06-03T05:43:18.785Z,100813.17
2018-06-03T05:45:49.588Z,100816.34
2018-06-03T05:48:20.281Z,100816.72
2018-06-03T05:50:50.873Z,100814.89
2018-06-03T05:53:21.827Z,100814.97
2018-06-03T05:55:52.431Z,100815.19
2018-06-03T05:58:24.054Z,100812.41
2018-06-03T06:00:55.006Z,100818.14
2018-06-03T06:03:25.753Z,100818.13
2018-06-03T06:05:56.751Z,100815.00
2018-06-03T06:08:27.868Z,100818.03
2018-06-03T06:10:58.642Z,100821.55
2018-06-03T06:13:29.218Z,100819.81
2018-06-03T06:15:59.748Z,100826.86
2018-06-03T06:18:30.421Z,100821.45
2018-06-03T06:21:01.238Z,100827.06
2018-06-03T06:23:31.891Z,100819.37
2018-06-03T06:26:02.447Z,100827.37
2018-06-03T06:28:32.934Z,100825.70
2018-06-03T06:31:03.265Z,100827.38
2018-06-03T06:33:34.826Z,100827.30
2018-06-03T06:36:06.421Z,100827.49
2018-06-03T06:38:37.216Z,100828.81
2018-06-03T06:41:07.881Z,100832.39
2018-06-03T06:43:38.875Z,100832.39
2018-06-03T06:46:09.481Z,100831.55
2018-06-03T06:48:40.149Z,100835.37
2018-06-03T06:51:11.431Z,100837.39
2018-06-03T06:53:42.294Z,100833.80
2018-06-03T06:56:12.829Z,100839.91
2018-06-03T06:58:43.422Z,100841.48
2018-06-03T07:01:14.936Z,100841.41
2018-06-03T07:03:45.877Z,100843.16
2018-06-03T07:06:16.377Z,100842.36
2018-06-03T07:08:46.942Z,100841.99
2018-06-03T07:11:18.267Z,100837.13
2018-06-03T07:13:48.755Z,100834.42
2018-06-03T07:16:19.357Z,100837.13
2018-06-03T07:18:51.246Z,100832.63
2018-06-03T07:21:21.991Z,100825.80
2018-06-03T07:23:52.713Z,100834.11
2018-06-03T07:26:23.616Z,100824.06
2018-06-03T07:28:55.531Z,100822.74
2018-06-03T07:31:26.134Z,100828.91
2018-06-03T07:33:56.681Z,100826.84
2018-06-03T07:36:27.511Z,100822.30
2018-06-03T07:38:59.075Z,100822.55
2018-06-03T07:41:29.613Z,100822.73
2018-06-03T07:44:00.539Z,100823.05
2018-06-03T07:46:31.312Z,100825.12
2018-06-03T07:49:02.138Z,100823.45
2018-06-03T07:51:33.126Z,100824.31
2018-06-03T07:54:03.645Z,100821.86
2018-06-03T07:56:34.010Z,100821.82
2018-06-03T07:59:05.776Z,100818.77
2018-06-03T08:01:36.599Z,100811.05
2018-06-03T08:04:07.954Z,100812.80
2018-06-03T08:06:38.526Z,100818.19
2018-06-03T08:09:09.145Z,100814.45
2018-06-03T08:11:39.691Z,100813.20
2018-06-03T08:14:11.284Z,100813.72
2018-06-03T08:16:41.903Z,100816.91
2018-06-03T08:19:12.616Z,100816.33
2018-06-03T08:21:43.284Z,100807.58
2018-06-03T08:24:15.959Z,100809.03
2018-06-03T08:26:46.579Z,100809.64
2018-06-03T08:29:17.422Z,100806.78
2018-06-03T08:31:48.273Z,100809.16
2018-06-03T08:34:19.094Z,100810.12
2018-06-03T08:36:49.736Z,100807.87
2018-06-03T08:39:20.313Z,100793.64
2018-06-03T08:41:50.934Z,100796.43
2018-06-03T08:44:21.711Z,100790.42
2018-06-03T08:46:52.272Z,100787.02
2018-06-03T08:49:23.145Z,100784.10
2018-06-03T08:51:54.201Z,100774.16
2018-06-03T08:54:24.809Z,100779.28
2018-06-03T08:56:55.085Z,100778.90
2018-06-03T08:59:26.705Z,100774.69
2018-06-03T09:01:57.619Z,100770.64
2018-06-03T09:04:28.282Z,100769.31
2018-06-03T09:06:58.912Z,100770.63
2018-06-03T09:09:29.553Z,100759.73
2018-06-03T09:11:59.999Z,100757.39
2018-06-03T09:14:30.534Z,100752.91
2018-06-03T09:17:01.403Z,100754.33
2018-06-03T09:19:32.394Z,100745.28
2018-06-03T09:22:02.937Z,100744.47
2018-06-03T09:24:33.642Z,100733.97
2018-06-03T09:27:04.327Z,100736.41
2018-06-03T09:29:36.369Z,100736.92
2018-06-03T09:32:06.648Z,100742.34
2018-06-03T09:34:37.669Z,100742.77
2018-06-03T09:37:08.051Z,100739.69
2018-06-03T09:39:38.715Z,100743.66
2018-06-03T09:42:09.593Z,100738.81
2018-06-03T09:44:39.816Z,100735.92
2018-06-03T09:47:11.806Z,100729.98
2018-06-03T09:49:42.470Z,100730.45
2018-06-03T09:52:13.822Z,100732.16
2018-06-03T09:54:44.515Z,100722.40
2018-06-03T09:57:15.437Z,100728.78
2018-06-03T09:59:46.125Z,100724.73
2018-06-03T10:02:16.856Z,100720.76
2018-06-03T10:04:48.042Z,100716.22
2018-06-03T10:07:18.532Z,100714.58
2018-06-03T10:09:49.359Z,100718.33
2018-06-03T10:12:19.942Z,100712.31
2018-06-03T10:14:50.694Z,100702.05
2018-06-03T10:17:21.301Z,100709.25
2018-06-03T10:19:52.043Z,100708.22
2018-06-03T10:22:22.630Z,100707.47
2018-06-03T10:24:53.116Z,100710.57
2018-06-03T10:27:23.633Z,100707.55
2018-06-03T10:29:54.202Z,100702.98
2018-06-03T10:32:24.714Z,100700.16
2018-06-03T10:34:55.227Z,100699.42
2018-06-03T10:37:25.803Z,100700.08
2018-06-03T10:39:56.624Z,100698.48
2018-06-03T10:42:27.291Z,100695.44
2018-06-03T10:44:57.417Z,100696.63
2018-06-03T10:47:27.831Z,100697.44
2018-06-03T10:49:59.545Z,100684.62
2018-06-03T10:52:30.089Z,100685.78
2018-06-03T10:55:00.655Z,100687.25
2018-06-03T10:57:31.170Z,100685.50
2018-06-03T11:00:01.771Z,100684.06
2018-06-03T11:02:32.292Z,100675.91
2018-06-03T11:05:02.928Z,100673.80
2018-06-03T11:07:33.427Z,100669.74
2018-06-03T11:10:04.322Z,100666.44
2018-06-03T11:12:35.184Z,100666.67
2018-06-03T11:15:06.983Z,100668.47
2018-06-03T11:17:37.584Z,100672.49
2018-06-03T11:20:08.368Z,100664.16
2018-06-03T11:22:38.929Z,100661.11
2018-06-03T11:25:09.603Z,100656.25
2018-06-03T11:27:40.791Z,100655.20
2018-06-03T11:30:11.777Z,100647.27
2018-06-03T11:32:42.359Z,100646.09
2018-06-03T11:35:13.136Z,100641.95
2018-06-03T11:37:43.715Z,100636.02
2018-06-03T11:40:15.414Z,100643.20
2018-06-03T11:42:46.026Z,100641.88
2018-06-03T11:45:16.659Z,100634.72
2018-06-03T11:47:47.255Z,100634.14
2018-06-03T11:50:17.867Z,100625.97
2018-06-03T11:52:48.769Z,100621.14
2018-06-03T11:55:19.424Z,100620.34
2018-06-03T11:58:54.090Z,100617.50
2018-06-03T12:01:25.417Z,100617.47
2018-06-03T12:03:56.966Z,100611.91
2018-06-03T12:06:27.607Z,100607.09
2018-06-03T12:08:58.212Z,100604.68
2018-06-03T12:11:28.717Z,100602.02
2018-06-03T12:14:00.423Z,100591.78
2018-06-03T12:16:31.783Z,100598.30
2018-06-03T12:19:02.291Z,100596.00
2018-06-03T12:21:32.796Z,100592.08
2018-06-03T12:24:03.776Z,100592.20
2018-06-03T12:26:34.280Z,100590.09
2018-06-03T12:29:05.927Z,100591.09
2018-06-03T12:31:36.467Z,100583.11
2018-06-03T12:34:08.046Z,100580.18
2018-06-03T12:36:38.634Z,100576.25
2018-06-03T12:39:10.885Z,100571.69
2018-06-03T12:41:41.442Z,100568.81
2018-06-03T12:44:11.962Z,100566.78
2018-06-03T12:46:42.527Z,100561.22
2018-06-03T12:49:14.146Z,100558.33
2018-06-03T12:51:44.645Z,100562.03
2018-06-03T12:54:16.134Z,100554.78
2018-06-03T12:56:46.650Z,100548.06
2018-06-03T12:59:16.875Z,100542.66
2018-06-03T13:01:47.284Z,100543.72
2018-06-03T13:04:17.807Z,100538.31
2018-06-03T13:06:48.362Z,100530.45
2018-06-03T13:09:20.024Z,100529.92
2018-06-03T13:11:50.754Z,100522.48
2018-06-03T13:14:22.285Z,100521.48
2018-06-03T13:16:52.899Z,100530.77
2018-06-03T13:19:24.527Z,100524.41
2018-06-03T13:21:54.852Z,100519.02
2018-06-03T13:24:25.303Z,100518.05
2018-06-03T13:26:55.816Z,100510.97
2018-06-03T13:29:26.384Z,100502.77
2018-06-03T13:31:57.000Z,100491.92
2018-06-03T13:34:27.492Z,100494.64
2018-06-03T13:36:57.979Z,100498.45
2018-06-03T13:39:28.183Z,100494.79
2018-06-03T13:41:58.645Z,100488.23
2018-06-03T13:44:29.352Z,100492.98
2018-06-03T13:46:59.862Z,100486.39
2018-06-03T13:49:30.522Z,100481.81
2018-06-03T13:52:01.033Z,100470.00
2018-06-03T13:54:32.523Z,100470.02
2018-06-03T13:57:03.140Z,100467.23
2018-06-03T13:59:34.734Z,100465.59
2018-06-03T14:02:05.558Z,100463.37
2018-06-03T14:04:36.076Z,100452.05
2018-06-03T14:07:06.759Z,100453.80
2018-06-03T14:09:37.299Z,100451.50
2018-06-03T14:12:08.903Z,100451.72
2018-06-03T14:14:39.393Z,100447.64
2018-06-03T14:17:10.983Z,100441.98
2018-06-03T14:19:41.836Z,100443.20
2018-06-03T14:22:12.588Z,100434.37
2018-06-03T14:24:43.106Z,100429.33
2018-06-03T14:27:13.587Z,100424.45
2018-06-03T14:29:44.278Z,100434.84
2018-06-03T14:32:15.842Z,100432.22
2018-06-03T14:34:46.483Z,100425.07
2018-06-03T14:37:17.044Z,100425.05
2018-06-03T14:39:47.893Z,100421.05
2018-06-03T14:42:18.448Z,100419.00
2018-06-03T14:44:49.053Z,100416.63
2018-06-03T14:47:20.553Z,100414.17
2018-06-03T14:49:51.165Z,100412.25
2018-06-03T14:52:25.605Z,100408.52
2018-06-03T14:54:56.120Z,100405.16
2018-06-03T14:57:26.719Z,100411.91
2018-06-03T14:59:57.220Z,100414.57
2018-06-03T15:02:29.796Z,100408.94
2018-06-03T15:05:00.348Z,100397.07
2018-06-03T15:07:31.910Z,100401.77
2018-06-03T15:10:02.444Z,100387.92
2018-06-03T15:12:32.962Z,100390.45
2018-06-03T15:15:03.532Z,100387.61
2018-06-03T15:17:34.184Z,100388.72
2018-06-03T15:20:04.994Z,100387.18
2018-06-03T15:22:36.258Z,100386.20
2018-06-03T15:25:06.865Z,100379.36
2018-06-03T15:27:39.117Z,100378.23
2018-06-03T15:30:09.737Z,100373.83
2018-06-03T15:32:40.298Z,100366.97
2018-06-03T15:35:10.900Z,100363.11
2018-06-03T15:37:42.416Z,100362.13
2018-06-03T15:40:13.043Z,100359.12
2018-06-03T15:42:44.623Z,100356.09
2018-06-03T15:45:15.509Z,100360.53
2018-06-03T15:47:46.090Z,100355.40
2018-06-03T15:50:16.722Z,100354.98
2018-06-03T15:52:47.250Z,100343.57
2018-06-03T15:55:17.735Z,100343.56
2018-06-03T15:57:50.288Z,100339.11
2018-06-03T16:00:20.860Z,100338.70
2018-06-03T16:02:51.383Z,100333.54
2018-06-03T16:05:22.082Z,100342.97
2018-06-03T16:07:53.038Z,100338.13
2018-06-03T16:10:23.600Z,100337.08
2018-06-03T16:12:55.195Z,100335.63
2018-06-03T16:15:25.708Z,100327.72
2018-06-03T16:17:56.286Z,100329.68
2018-06-03T16:20:26.681Z,100333.69
2018-06-03T16:22:57.182Z,100331.41
2018-06-03T16:25:27.806Z,100337.42
2018-06-03T16:27:58.970Z,100332.89
2018-06-03T16:30:29.836Z,100328.16
2018-06-03T16:33:00.311Z,100324.69
2018-06-03T16:35:30.946Z,100315.78
2018-06-03T16:38:02.386Z,100312.10
2018-06-03T16:40:33.156Z,100308.33
2018-06-03T16:43:03.684Z,100312.28
2018-06-03T16:45:34.261Z,100302.19
2018-06-03T16:48:04.851Z,100297.70
2018-06-03T16:50:36.514Z,100298.22
2018-06-03T16:53:07.092Z,100295.03
2018-06-03T16:55:37.724Z,100293.52
2018-06-03T16:58:08.318Z,100293.83
2018-06-03T17:00:38.946Z,100296.53
2018-06-03T17:03:09.550Z,100295.23
2018-06-03T17:05:40.071Z,100283.25
2018-06-03T17:08:10.563Z,100289.77
2018-06-03T17:10:42.036Z,100287.34
2018-06-03T17:13:12.543Z,100282.48
2018-06-03T17:15:43.194Z,100276.70
2018-06-03T17:18:13.781Z,100283.09
2018-06-03T17:20:44.630Z,100279.64
2018-06-03T17:23:15.133Z,100282.48
2018-06-03T17:25:45.601Z,100281.83
2018-06-03T17:28:16.177Z,100280.95
2018-06-03T17:30:46.877Z,100275.75
2018-06-03T17:33:17.542Z,100270.20
2018-06-03T17:35:48.149Z,100270.52
2018-06-03T17:38:18.707Z,100267.09
2018-06-03T17:40:49.969Z,100268.23
2018-06-03T17:43:20.515Z,100274.01
2018-06-03T17:45:55.679Z,100276.25
2018-06-03T17:48:26.366Z,100280.47
2018-06-03T17:50:57.187Z,100279.19
2018-06-03T17:53:27.714Z,100283.35
2018-06-03T17:55:58.275Z,100283.52
2018-06-03T17:58:28.956Z,100284.91
2018-06-03T18:00:59.602Z,100283.81
2018-06-03T18:03:30.159Z,100284.77
2018-06-03T18:06:00.884Z,100292.75
2018-06-03T18:08:31.788Z,100291.05
2018-06-03T18:11:03.027Z,100289.83
2018-06-03T18:13:33.665Z,100290.41
2018-06-03T18:16:04.295Z,100282.97
2018-06-03T18:18:34.830Z,100276.66
2018-06-03T18:21:06.397Z,100281.52
2018-06-03T18:23:37.119Z,100278.06
2018-06-03T18:26:08.799Z,100282.41
2018-06-03T18:28:39.473Z,100281.09
2018-06-03T18:31:10.081Z,100272.73
2018-06-03T18:33:40.734Z,100273.44
2018-06-03T18:36:11.264Z,100272.17
2018-06-03T18:38:41.832Z,100274.89
2018-06-03T18:41:12.353Z,100273.33
2018-06-03T18:43:42.854Z,100270.82
2018-06-03T18:46:13.409Z,100269.31
2018-06-03T18:48:44.030Z,100266.80
2018-06-03T18:51:15.598Z,100262.52
2018-06-03T18:53:46.110Z,100256.16
2018-06-03T18:56:16.675Z,100244.56
2018-06-03T18:58:47.242Z,100248.35
2018-06-03T19:01:17.858Z,100255.53
2018-06-03T19:03:48.484Z,100251.44
2018-06-03T19:06:19.126Z,100247.61
2018-06-03T19:08:49.645Z,100251.13
2018-06-03T19:11:20.262Z,100244.98
2018-06-03T19:13:50.813Z,100247.02
2018-06-03T19:16:21.339Z,100246.43
2018-06-03T19:18:52.851Z,100249.92
2018-06-03T19:21:23.558Z,100242.12
2018-06-03T19:23:54.189Z,100244.38
2018-06-03T19:26:24.793Z,100247.34
2018-06-03T19:28:55.407Z,100245.08
2018-06-03T19:31:27.043Z,100252.13
2018-06-03T19:33:57.677Z,100251.08
2018-06-03T19:36:28.363Z,100253.89
2018-06-03T19:38:58.888Z,100256.91
2018-06-03T19:41:29.290Z,100256.15
2018-06-03T19:43:59.781Z,100253.84
2018-06-03T19:46:30.409Z,100253.72
2018-06-03T19:49:00.939Z,100260.48
2018-06-03T19:51:31.698Z,100262.95
2018-06-03T19:54:03.180Z,100252.41
2018-06-03T19:56:33.815Z,100255.41
2018-06-03T19:59:04.444Z,100261.86
2018-06-03T20:01:34.666Z,100263.19
2018-06-03T20:04:06.487Z,100255.44
2018-06-03T20:06:37.057Z,100258.30
2018-06-03T20:09:09.056Z,100254.20
2018-06-03T20:11:39.671Z,100252.33
2018-06-03T20:14:11.207Z,100258.48
2018-06-03T20:16:41.743Z,100259.80
2018-06-03T20:19:13.376Z,100266.87
2018-06-03T20:21:43.945Z,100260.25
2018-06-03T20:24:14.430Z,100266.28
2018-06-03T20:26:44.988Z,100267.63
2018-06-03T20:29:16.601Z,100263.11
2018-06-03T20:31:47.209Z,100262.89
2018-06-03T20:34:18.056Z,100268.01
2018-06-03T20:36:48.559Z,100276.56
2018-06-03T20:39:19.272Z,100273.73
2018-06-03T20:41:49.857Z,100282.52
2018-06-03T20:44:20.675Z,100277.02
2018-06-03T20:46:51.181Z,100288.02
2018-06-03T20:49:22.663Z,100289.94
2018-06-03T20:51:53.150Z,100282.88
2018-06-03T20:54:23.810Z,100285.48
2018-06-03T20:56:54.303Z,100287.36
2018-06-03T20:59:25.428Z,100288.20
2018-06-03T21:01:56.812Z,100286.84
2018-06-03T21:04:27.664Z,100288.98
2018-06-03T21:06:58.156Z,100289.46
2018-06-03T21:09:29.723Z,100299.75
2018-06-03T21:11:59.801Z,100298.78
2018-06-03T21:14:30.239Z,100290.56
2018-06-03T21:17:00.715Z,100292.98
2018-06-03T21:19:32.194Z,100296.73
2018-06-03T21:22:02.763Z,100296.55
2018-06-03T21:24:34.221Z,100295.88
2018-06-03T21:27:04.750Z,100302.66
2018-06-03T21:29:36.240Z,100299.62
2018-06-03T21:32:06.778Z,100297.06
2018-06-03T21:34:37.273Z,100299.48
2018-06-03T21:37:07.767Z,100301.39
2018-06-03T21:39:38.283Z,100300.85
2018-06-03T21:42:08.824Z,100309.82
2018-06-03T21:44:39.296Z,100303.36
2018-06-03T21:47:09.802Z,100305.77
2018-06-03T21:49:40.158Z,100304.05
2018-06-03T21:52:10.522Z,100309.07
2018-06-03T21:54:41.985Z,100302.59
2018-06-03T21:57:12.438Z,100300.25
2018-06-03T21:59:42.926Z,100307.02
2018-06-03T22:02:13.393Z,100303.25
2018-06-03T22:04:44.121Z,100305.14
2018-06-03T22:07:14.595Z,100311.21
2018-06-03T22:09:45.116Z,100316.22
2018-06-03T22:12:15.625Z,100310.19
2018-06-03T22:14:46.097Z,100316.88
2018-06-03T22:17:16.623Z,100321.43
2018-06-03T22:19:48.089Z,100307.25
2018-06-03T22:22:18.787Z,100313.70
2018-06-03T22:24:49.276Z,100312.13
2018-06-03T22:27:19.780Z,100305.84
2018-06-03T22:29:51.426Z,100308.44
2018-06-03T22:32:21.865Z,100301.95
2018-06-03T22:34:52.385Z,100293.06
2018-06-03T22:37:22.909Z,100288.84
2018-06-03T22:39:53.372Z,100292.25
2018-06-03T22:42:24.152Z,100286.47
2018-06-03T22:44:54.741Z,100288.31
2018-06-03T22:47:25.217Z,100286.33
2018-06-03T22:49:55.811Z,100284.14
2018-06-03T22:52:27.509Z,100288.02
2018-06-03T22:54:58.968Z,100279.72
2018-06-03T22:57:53.786Z,100280.34
2018-06-03T23:00:31.063Z,100283.47
2018-06-03T23:03:06.685Z,100282.16
2018-06-03T23:05:37.170Z,100281.22
2018-06-03T23:08:08.979Z,100271.41
2018-06-03T23:10:39.407Z,100283.36
2018-06-03T23:13:09.896Z,100285.91
2018-06-03T23:15:40.629Z,100286.41
2018-06-03T23:18:11.106Z,100287.14
2018-06-03T23:20:41.528Z,100289.13
2018-06-03T23:23:12.037Z,100291.78
2018-06-03T23:25:42.468Z,100288.13
2018-06-03T23:28:12.930Z,100279.94
2018-06-03T23:30:43.377Z,100284.70
2018-06-03T23:33:14.862Z,100288.84
2018-06-03T23:35:45.301Z,100284.95
2018-06-03T23:38:15.870Z,100286.58
2018-06-03T23:40:46.333Z,100291.14
2018-06-03T23:43:16.805Z,100284.33
2018-06-03T23:45:47.262Z,100277.17
2018-06-03T23:48:19.772Z,100275.91
2018-06-03T23:50:50.306Z,100272.48
2018-06-03T23:53:21.820Z,100275.47
2018-06-03T23:55:52.597Z,100276.91
2018-06-03T23:58:23.266Z,100266.53
